ASQ weather

Austin Airport
Austin, Nevada, United States

Public forecast

Using degrees Fahrenheit for public forecast. Weather courtesy of forecast.io.

METAR (pilot weather report)

Closest report is Eureka Airport, 55.7 nm (103.2 km) E. Retrieved UTC (0 seconds ago):

TAF (pilot weather forecast)

Closest forecast is Battle Mountain Airport, 69.5 nm (128.7 km) NNE. Retrieved 2019/09/20 12:22 UTC (5 hours ago):

TAF KBAM 201120Z 2012/2112 24006KT P6SM VCSH SCT020 BKN040 FM202000 28008KT P6SM SCT040 BKN060 FM210100 VRB06KT P6SM BKN040 AMD NOT SKED